createdAt,value
2023-02-09T00:01:54.774Z,19.83
2023-02-09T00:07:00.278Z,19.79
2023-02-09T00:12:22.901Z,19.79
2023-02-09T00:17:25.666Z,19.79
2023-02-09T00:22:28.632Z,19.78
2023-02-09T00:27:35.508Z,19.76
2023-02-09T00:32:39.565Z,19.74
2023-02-09T00:37:42.372Z,19.75
2023-02-09T00:42:46.549Z,19.74
2023-02-09T00:47:50.229Z,19.77
2023-02-09T00:52:53.226Z,19.74
2023-02-09T00:57:57.563Z,19.77
2023-02-09T01:03:00.359Z,19.77
2023-02-09T01:08:03.169Z,19.75
2023-02-09T01:13:07.396Z,19.70
2023-02-09T01:18:10.241Z,19.76
2023-02-09T01:23:13.012Z,19.71
2023-02-09T01:28:17.160Z,19.71
2023-02-09T01:33:19.926Z,19.68
2023-02-09T01:38:23.979Z,19.66
2023-02-09T01:43:28.264Z,19.62
2023-02-09T01:48:31.618Z,19.57
2023-02-09T01:53:34.403Z,19.50
2023-02-09T01:58:38.541Z,19.44
2023-02-09T02:03:41.334Z,19.40
2023-02-09T02:08:46.567Z,19.35
2023-02-09T02:13:50.660Z,19.35
2023-02-09T02:19:02.948Z,19.24
2023-02-09T02:24:19.971Z,19.17
2023-02-09T02:29:46.678Z,19.11
2023-02-09T02:34:52.363Z,18.97
2023-02-09T02:40:00.320Z,18.90
2023-02-09T02:45:12.451Z,18.84
2023-02-09T02:50:17.796Z,18.75
2023-02-09T02:55:21.403Z,18.69
2023-02-09T03:00:25.440Z,18.65
2023-02-09T03:05:29.755Z,18.59
2023-02-09T03:10:34.518Z,18.54
2023-02-09T03:15:44.008Z,18.50
2023-02-09T03:20:51.398Z,18.48
2023-02-09T03:25:54.197Z,18.45
2023-02-09T03:30:57.168Z,18.41
2023-02-09T03:36:02.274Z,18.27
2023-02-09T03:41:07.229Z,18.35
2023-02-09T03:46:10.887Z,18.32
2023-02-09T03:51:15.090Z,18.27
2023-02-09T03:56:17.931Z,18.26
2023-02-09T04:01:20.791Z,18.22
2023-02-09T04:06:25.190Z,18.20
2023-02-09T04:11:28.792Z,18.18
2023-02-09T04:16:32.008Z,18.17
2023-02-09T04:21:36.264Z,18.15
2023-02-09T04:26:39.126Z,18.17
2023-02-09T04:31:41.947Z,18.14
2023-02-09T04:36:46.130Z,18.15
2023-02-09T04:41:49.014Z,18.17
2023-02-09T04:46:51.807Z,18.13
2023-02-09T04:51:56.052Z,18.12
2023-02-09T04:57:12.944Z,18.08
2023-02-09T05:02:15.993Z,18.08
2023-02-09T05:07:20.183Z,18.05
2023-02-09T05:12:22.986Z,17.96
2023-02-09T05:17:25.894Z,18.02
2023-02-09T05:22:30.126Z,18.01
2023-02-09T05:27:32.876Z,17.98
2023-02-09T05:32:35.656Z,17.97
2023-02-09T05:37:39.781Z,17.95
2023-02-09T05:42:42.579Z,17.95
2023-02-09T05:47:45.327Z,17.94
2023-02-09T05:52:49.471Z,17.93
2023-02-09T05:57:52.232Z,17.91
2023-02-09T06:02:54.988Z,17.90
2023-02-09T06:07:59.174Z,17.89
2023-02-09T06:13:01.955Z,17.87
2023-02-09T06:18:05.012Z,17.87
2023-02-09T06:23:09.153Z,17.84
2023-02-09T06:28:12.064Z,17.85
2023-02-09T06:33:14.969Z,17.82
2023-02-09T06:38:19.105Z,17.81
2023-02-09T06:43:21.953Z,17.80
2023-02-09T06:48:24.773Z,17.78
2023-02-09T06:53:29.062Z,17.78
2023-02-09T06:58:31.865Z,17.76
2023-02-09T07:03:34.715Z,17.77
2023-02-09T07:08:38.873Z,17.74
2023-02-09T07:13:41.645Z,17.74
2023-02-09T07:18:44.601Z,17.76
2023-02-09T07:23:48.830Z,17.75
2023-02-09T07:28:51.625Z,17.74
2023-02-09T07:33:55.160Z,17.74
2023-02-09T07:38:59.567Z,17.74
2023-02-09T07:44:03.046Z,17.75
2023-02-09T07:49:05.817Z,17.74
2023-02-09T07:54:13.396Z,17.60
2023-02-09T07:59:16.557Z,17.55
2023-02-09T08:04:19.556Z,13.49
2023-02-09T08:09:23.742Z,11.88
2023-02-09T08:14:27.555Z,14.18
2023-02-09T08:19:30.362Z,15.47
2023-02-09T08:24:34.581Z,16.23
2023-02-09T08:29:37.368Z,16.73
2023-02-09T08:34:40.133Z,17.04
2023-02-09T08:39:45.168Z,17.45
2023-02-09T08:44:47.940Z,17.72
2023-02-09T08:49:51.563Z,17.92
2023-02-09T08:54:55.797Z,18.03
2023-02-09T08:59:58.543Z,18.10
2023-02-09T09:05:01.237Z,18.12
2023-02-09T09:10:06.107Z,18.12
2023-02-09T09:15:09.546Z,18.11
2023-02-09T09:20:12.745Z,18.10
2023-02-09T09:25:17.030Z,18.10
2023-02-09T09:30:20.197Z,18.05
2023-02-09T09:35:22.965Z,18.05
2023-02-09T09:40:28.913Z,17.97
2023-02-09T09:45:33.186Z,17.90
2023-02-09T09:50:38.159Z,17.88
2023-02-09T09:55:42.283Z,17.85
2023-02-09T10:00:45.025Z,17.85
2023-02-09T10:05:49.168Z,17.84
2023-02-09T10:10:56.386Z,17.83
2023-02-09T10:15:59.534Z,17.86
2023-02-09T10:21:03.350Z,17.86
2023-02-09T10:26:24.308Z,17.88
2023-02-09T10:31:33.312Z,17.88
2023-02-09T10:36:37.546Z,17.89
2023-02-09T10:41:43.681Z,18.03
2023-02-09T10:46:47.113Z,18.34
2023-02-09T10:51:51.097Z,18.56
2023-02-09T10:56:55.268Z,18.77
2023-02-09T11:01:58.865Z,19.01
2023-02-09T11:07:02.884Z,19.12
2023-02-09T11:12:07.422Z,19.26
2023-02-09T11:17:15.700Z,19.28
2023-02-09T11:22:20.351Z,19.38
2023-02-09T11:27:44.642Z,19.50
2023-02-09T11:32:49.392Z,19.51
2023-02-09T11:37:55.021Z,19.57
2023-02-09T11:43:07.944Z,19.55
2023-02-09T11:48:12.188Z,19.49
2023-02-09T11:53:21.224Z,19.46
2023-02-09T11:58:30.789Z,19.43
2023-02-09T12:03:33.566Z,19.38
2023-02-09T12:08:45.332Z,19.29
2023-02-09T12:13:58.509Z,19.24
2023-02-09T12:19:01.647Z,19.19
2023-02-09T12:24:04.520Z,19.16
2023-02-09T12:29:26.400Z,19.14
2023-02-09T12:34:30.382Z,19.10
2023-02-09T12:39:33.205Z,19.06
2023-02-09T12:44:54.709Z,19.02
2023-02-09T12:50:03.829Z,18.97
2023-02-09T12:55:24.332Z,19.28
2023-02-09T13:00:33.626Z,19.53
2023-02-09T13:05:39.108Z,19.70
2023-02-09T13:10:43.682Z,19.82
2023-02-09T13:15:51.611Z,20.09
2023-02-09T13:21:16.372Z,20.37
2023-02-09T13:26:20.512Z,20.56
2023-02-09T13:31:35.446Z,20.65
2023-02-09T13:36:40.476Z,20.73
2023-02-09T13:41:48.338Z,20.81
2023-02-09T13:46:57.085Z,20.90
2023-02-09T13:52:10.067Z,20.98
2023-02-09T13:57:19.182Z,21.02
2023-02-09T14:02:25.530Z,21.14
2023-02-09T14:07:30.349Z,21.20
2023-02-09T14:12:52.184Z,21.19
2023-02-09T14:17:56.608Z,21.25
2023-02-09T14:23:00.276Z,21.27
2023-02-09T14:28:03.528Z,21.26
2023-02-09T14:33:17.608Z,21.25
2023-02-09T14:38:35.084Z,21.22
2023-02-09T14:43:37.894Z,21.21
2023-02-09T14:48:42.089Z,21.20
2023-02-09T14:53:44.994Z,21.22
2023-02-09T14:58:47.815Z,21.22
2023-02-09T15:03:51.974Z,21.18
2023-02-09T15:08:54.810Z,21.18
2023-02-09T15:13:58.365Z,21.14
2023-02-09T15:19:04.775Z,21.14
2023-02-09T15:24:07.700Z,21.09
2023-02-09T15:29:12.215Z,21.08
2023-02-09T15:34:16.475Z,21.07
2023-02-09T15:39:20.853Z,21.04
2023-02-09T15:44:49.370Z,21.00
2023-02-09T15:49:54.641Z,20.95
2023-02-09T15:54:57.522Z,20.83
2023-02-09T16:00:00.290Z,20.71
2023-02-09T16:05:04.631Z,20.62
2023-02-09T16:10:08.235Z,20.46
2023-02-09T16:15:15.530Z,20.48
2023-02-09T16:20:20.409Z,20.43
2023-02-09T16:25:24.388Z,20.36
2023-02-09T16:30:28.365Z,20.35
2023-02-09T16:35:32.526Z,20.33
2023-02-09T16:40:35.328Z,20.28
2023-02-09T16:45:38.660Z,20.36
2023-02-09T16:50:46.823Z,20.37
2023-02-09T16:55:50.350Z,20.34
2023-02-09T17:00:53.487Z,20.45
2023-02-09T17:05:57.628Z,20.43
2023-02-09T17:11:00.869Z,20.47
2023-02-09T17:16:05.096Z,20.41
2023-02-09T17:21:10.646Z,20.29
2023-02-09T17:26:13.578Z,20.22
2023-02-09T17:31:18.056Z,20.17
2023-02-09T17:36:27.606Z,20.09
2023-02-09T17:41:33.911Z,20.02
2023-02-09T17:46:36.818Z,19.94
2023-02-09T17:51:41.797Z,19.90
2023-02-09T17:56:44.636Z,19.82
2023-02-09T18:01:49.686Z,19.73
2023-02-09T18:06:55.481Z,19.66
2023-02-09T18:12:02.013Z,19.59
2023-02-09T18:17:04.965Z,19.47
2023-02-09T18:22:11.832Z,19.47
2023-02-09T18:27:14.960Z,19.45
2023-02-09T18:32:18.208Z,19.38
2023-02-09T18:37:22.485Z,19.36
2023-02-09T18:42:25.419Z,19.38
2023-02-09T18:47:28.247Z,19.31
2023-02-09T18:52:32.409Z,19.34
2023-02-09T18:57:35.192Z,19.39
2023-02-09T19:02:38.330Z,19.44
2023-02-09T19:07:43.711Z,19.52
2023-02-09T19:12:46.708Z,19.63
2023-02-09T19:17:49.684Z,19.72
2023-02-09T19:22:53.898Z,19.81
2023-02-09T19:27:57.052Z,19.84
2023-02-09T19:33:00.173Z,19.87
2023-02-09T19:38:04.327Z,19.89
2023-02-09T19:43:07.364Z,19.88
2023-02-09T19:48:11.475Z,19.90
2023-02-09T19:53:15.745Z,19.94
2023-02-09T19:58:21.250Z,20.00
2023-02-09T20:03:24.216Z,20.11
2023-02-09T20:08:28.679Z,20.16
2023-02-09T20:13:31.550Z,20.18
2023-02-09T20:18:34.336Z,20.21
2023-02-09T20:23:38.618Z,20.22
2023-02-09T20:28:41.401Z,20.27
2023-02-09T20:33:44.275Z,20.24
2023-02-09T20:38:48.565Z,20.29
2023-02-09T20:44:09.067Z,20.27
2023-02-09T20:49:12.815Z,20.29
2023-02-09T20:54:17.052Z,20.27
2023-02-09T20:59:20.108Z,20.32
2023-02-09T21:04:23.042Z,20.31
2023-02-09T21:09:28.260Z,20.33
2023-02-09T21:14:41.556Z,20.34
2023-02-09T21:19:45.508Z,20.38
2023-02-09T21:24:49.804Z,20.35
2023-02-09T21:29:52.704Z,20.39
2023-02-09T21:34:55.462Z,20.40
2023-02-09T21:40:02.786Z,20.43
2023-02-09T21:45:07.772Z,20.47
2023-02-09T21:50:12.382Z,20.46
2023-02-09T21:55:17.007Z,20.50
2023-02-09T22:00:20.133Z,20.47
2023-02-09T22:05:22.998Z,20.50
2023-02-09T22:10:27.119Z,20.48
2023-02-09T22:15:29.977Z,20.49
2023-02-09T22:20:32.779Z,20.45
2023-02-09T22:25:37.023Z,20.46
2023-02-09T22:30:39.844Z,20.41
2023-02-09T22:35:42.631Z,20.37
2023-02-09T22:40:46.762Z,20.36
2023-02-09T22:45:55.799Z,20.36
2023-02-09T22:50:58.768Z,20.33
2023-02-09T22:56:04.209Z,20.32
2023-02-09T23:01:07.266Z,20.32
2023-02-09T23:06:11.870Z,20.33
2023-02-09T23:11:16.811Z,20.28
2023-02-09T23:16:20.536Z,20.29
2023-02-09T23:21:24.530Z,20.22
2023-02-09T23:26:28.662Z,20.22
2023-02-09T23:31:31.658Z,20.22
2023-02-09T23:36:34.926Z,20.18
2023-02-09T23:41:39.148Z,20.20
2023-02-09T23:46:41.962Z,20.17
2023-02-09T23:51:45.038Z,20.16
2023-02-09T23:56:49.854Z,20.09
